Time;durP1;ratioP1;P1;durP2;ratioP2;P2;SDS_P1;SDS_P2;PMS_P1;PMS_P2;Temp;Humidity;BMP_temperature;BMP_pressure;BME280_temperature;BME280_humidity;BME280_pressure;Samples;Min_cycle;Max_cycle;Signal;HPM_P1;HPM_P2
2021/12/23 00:00:22;;;;;;;41.72;24.20;;;;;;;-1.64;83.26;101164.19;6198698;23;20024;-81
2021/12/23 00:02:49;;;;;;;41.13;24.23;;;;;;;-1.60;83.02;101164.91;6194549;23;20017;-82
2021/12/23 00:05:19;;;;;;;39.38;24.85;;;;;;;-1.57;82.73;101157.06;6195079;23;20023;-80
2021/12/23 00:07:50;;;;;;;40.20;24.00;;;;;;;-1.70;82.63;101139.63;6194671;23;20017;-80
2021/12/23 00:10:18;;;;;;;40.85;23.63;;;;;;;-1.61;83.25;101155.53;6195702;23;20017;-79
2021/12/23 00:12:49;;;;;;;40.90;24.30;;;;;;;-1.56;83.25;101166.44;6196545;23;20369;-81
2021/12/23 00:15:27;;;;;;;38.92;23.45;;;;;;;-1.69;83.38;101158.41;6197700;23;20489;-81
2021/12/23 00:18:04;;;;;;;42.42;24.95;;;;;;;-1.65;83.53;101157.41;6194538;23;20032;-81
2021/12/23 00:23:27;;;;;;;40.22;22.85;;;;;;;-1.72;83.23;101131.16;6195699;23;20071;-81
2021/12/23 00:26:00;;;;;;;38.22;23.95;;;;;;;-1.61;82.68;101150.41;6194418;23;20028;-79
2021/12/23 00:28:28;;;;;;;38.20;23.42;;;;;;;-1.49;82.20;101157.56;6193049;23;20017;-80
2021/12/23 00:30:59;;;;;;;41.45;25.25;;;;;;;-1.56;82.48;101162.13;6196776;23;20085;-80
2021/12/23 00:33:29;;;;;;;43.33;23.45;;;;;;;-1.59;82.73;101128.06;6196816;23;20096;-80
2021/12/23 00:36:03;;;;;;;42.67;24.38;;;;;;;-1.56;83.05;101136.47;6192668;23;20012;-79
2021/12/23 00:38:45;;;;;;;39.33;24.52;;;;;;;-1.71;82.84;101102.03;6193571;23;20025;-79
2021/12/23 00:41:22;;;;;;;37.83;23.02;;;;;;;-1.57;82.69;101103.19;6191854;23;20016;-79
2021/12/23 00:43:59;;;;;;;40.08;24.75;;;;;;;-1.51;82.55;101110.63;6193481;23;20048;-79
2021/12/23 00:46:44;;;;;;;39.15;23.77;;;;;;;-1.49;82.44;101103.69;6198656;23;20013;-80
2021/12/23 00:49:22;;;;;;;39.08;23.60;;;;;;;-1.59;82.97;101094.72;6198320;23;20032;-79
2021/12/23 00:51:59;;;;;;;41.92;24.23;;;;;;;-1.48;82.29;101108.75;6194345;23;20073;-78
2021/12/23 00:54:52;;;;;;;41.35;24.45;;;;;;;-1.50;82.98;101118.25;6197461;23;20048;-79
2021/12/23 00:57:25;;;;;;;42.95;26.45;;;;;;;-1.51;82.68;101121.72;6200212;23;20021;-80
2021/12/23 00:59:59;;;;;;;40.03;24.05;;;;;;;-1.72;82.41;101089.28;6199453;23;20016;-80
2021/12/23 01:02:30;;;;;;;38.45;23.30;;;;;;;-1.62;82.24;101084.59;6199609;23;20164;-81
2021/12/23 01:05:05;;;;;;;44.83;24.83;;;;;;;-1.67;82.81;101077.91;6200295;23;20197;-81
2021/12/23 01:10:18;;;;;;;38.88;24.20;;;;;;;-1.75;83.00;101072.28;6196402;23;20017;-80
2021/12/23 01:13:02;;;;;;;41.08;24.40;;;;;;;-1.70;83.30;101072.91;6197509;23;20016;-78
2021/12/23 01:15:50;;;;;;;41.30;23.30;;;;;;;-1.79;83.12;101057.91;6197360;23;20017;-79
2021/12/23 01:18:21;;;;;;;43.90;24.98;;;;;;;-1.70;82.61;101072.91;6198704;23;20021;-79
2021/12/23 01:20:52;;;;;;;40.13;24.38;;;;;;;-1.82;82.97;101049.53;6197518;23;20020;-79
2021/12/23 01:23:21;;;;;;;42.88;25.50;;;;;;;-1.77;83.05;101066.38;6197760;23;20020;-80
2021/12/23 01:25:51;;;;;;;41.25;24.40;;;;;;;-1.73;83.11;101067.91;6198028;23;20012;-81
2021/12/23 01:28:21;;;;;;;44.88;24.83;;;;;;;-1.69;83.40;101061.75;6198314;23;20079;-80
2021/12/23 01:30:49;;;;;;;43.92;24.85;;;;;;;-1.70;83.45;101062.66;6196043;23;20013;-80
2021/12/23 01:33:19;;;;;;;42.15;24.90;;;;;;;-1.71;83.62;101072.97;6196459;23;20023;-79
2021/12/23 01:35:49;;;;;;;43.00;25.60;;;;;;;-1.90;83.78;101043.91;6196595;23;20200;-81
2021/12/23 01:38:19;;;;;;;42.60;24.38;;;;;;;-1.85;84.10;101042.78;6194561;23;20013;-80
2021/12/23 01:40:49;;;;;;;41.35;25.40;;;;;;;-1.75;83.69;101046.63;6196214;23;20009;-80
2021/12/23 01:43:22;;;;;;;41.65;25.27;;;;;;;-1.74;83.33;101032.91;6199285;23;20065;-79
2021/12/23 01:45:50;;;;;;;42.17;24.48;;;;;;;-1.82;83.49;101014.44;6197312;23;20024;-79
2021/12/23 01:48:19;;;;;;;41.67;26.15;;;;;;;-1.81;83.15;101005.84;6194210;23;20017;-80
2021/12/23 01:50:55;;;;;;;41.05;23.67;;;;;;;-1.63;82.86;101029.88;6195994;23;20339;-79
2021/12/23 01:53:27;;;;;;;40.53;25.52;;;;;;;-1.67;83.35;101029.16;6198168;23;20084;-80
2021/12/23 01:56:01;;;;;;;39.03;24.67;;;;;;;-1.65;83.41;101038.53;6194307;23;20029;-79
2021/12/23 01:58:41;;;;;;;43.90;25.40;;;;;;;-1.71;83.42;101030.19;6194348;23;20027;-79
2021/12/23 02:01:12;;;;;;;44.85;26.42;;;;;;;-1.68;83.14;101042.91;6196476;23;20017;-80
2021/12/23 02:03:49;;;;;;;43.42;26.00;;;;;;;-1.64;83.58;101046.16;6195488;23;20028;-80
2021/12/23 02:06:19;;;;;;;44.60;25.67;;;;;;;-1.74;83.74;101044.91;6195712;23;20021;-80
2021/12/23 02:09:01;;;;;;;41.08;24.65;;;;;;;-1.85;84.31;101022.28;6195500;23;20023;-81
2021/12/23 02:11:30;;;;;;;43.35;26.58;;;;;;;-1.73;83.84;101026.03;6196644;23;20012;-81
2021/12/23 02:14:01;;;;;;;43.25;26.55;;;;;;;-1.83;83.91;100999.94;6197103;23;20032;-81
2021/12/23 02:16:29;;;;;;;45.40;25.00;;;;;;;-1.73;84.05;101014.03;6196657;23;20025;-81
2021/12/23 02:19:00;;;;;;;43.40;27.02;;;;;;;-1.70;83.81;101015.63;6195433;23;20021;-80
2021/12/23 02:21:29;;;;;;;44.75;26.08;;;;;;;-1.75;84.29;101018.41;6196071;23;20048;-80
2021/12/23 02:23:59;;;;;;;40.50;25.75;;;;;;;-1.72;83.83;101007.19;6195535;23;20048;-80
2021/12/23 02:26:31;;;;;;;43.70;25.98;;;;;;;-1.70;84.25;101003.66;6197681;23;20037;-81
2021/12/23 02:29:03;;;;;;;40.25;22.23;;;;;;;-1.70;84.09;100995.94;6197447;23;20021;-80
2021/12/23 02:31:37;;;;;;;42.35;26.02;;;;;;;-1.67;83.89;100985.53;6196545;23;20338;-81
2021/12/23 02:34:10;;;;;;;44.90;25.73;;;;;;;-1.59;84.14;100998.03;6196171;23;20473;-81
2021/12/23 02:36:39;;;;;;;42.63;26.30;;;;;;;-1.54;83.65;100979.84;6197897;23;20039;-80
2021/12/23 02:39:06;;;;;;;49.53;26.05;;;;;;;-1.54;84.00;100978.13;6198776;23;20027;-80
2021/12/23 02:41:33;;;;;;;41.10;25.75;;;;;;;-1.54;83.38;100979.84;6195139;23;20017;-80
2021/12/23 02:44:00;;;;;;;38.60;24.48;;;;;;;-1.64;83.78;100963.22;6197045;23;20020;-81
2021/12/23 02:46:32;;;;;;;44.10;26.45;;;;;;;-1.56;84.36;100971.41;6196846;23;20081;-80
2021/12/23 02:48:59;;;;;;;41.90;25.00;;;;;;;-1.50;83.40;100961.69;6197662;23;20025;-80
2021/12/23 02:51:29;;;;;;;39.80;24.83;;;;;;;-1.58;84.20;100965.50;6197142;23;20024;-80
2021/12/23 02:54:11;;;;;;;44.17;25.88;;;;;;;-1.53;84.23;100966.13;6196427;23;20025;-80
2021/12/23 02:56:41;;;;;;;43.40;24.85;;;;;;;-1.55;84.49;100973.06;6196403;23;20092;-79
2021/12/23 02:59:11;;;;;;;43.25;25.48;;;;;;;-1.57;83.93;100965.44;6196570;23;20024;-80
2021/12/23 03:01:45;;;;;;;43.25;25.45;;;;;;;-1.53;83.81;100978.97;6199994;23;20021;-80
2021/12/23 03:04:20;;;;;;;42.75;25.48;;;;;;;-1.64;84.38;100969.19;6199351;23;20056;-79
2021/12/23 03:07:03;;;;;;;42.15;25.70;;;;;;;-1.61;84.46;100952.81;6198834;23;20032;-79
2021/12/23 03:09:50;;;;;;;44.38;27.27;;;;;;;-1.53;84.17;100946.44;6196175;23;20112;-79
2021/12/23 03:12:17;;;;;;;41.47;25.42;;;;;;;-1.55;83.70;100943.09;6196738;23;20028;-80
2021/12/23 03:14:46;;;;;;;43.53;24.58;;;;;;;-1.52;84.42;100957.53;6198155;23;20037;-80
2021/12/23 03:17:16;;;;;;;41.53;25.88;;;;;;;-1.55;83.72;100950.81;6194478;23;20021;-80
2021/12/23 03:19:44;;;;;;;44.83;25.80;;;;;;;-1.51;84.46;100964.31;6195916;23;20025;-80
2021/12/23 03:22:16;;;;;;;42.75;25.63;;;;;;;-1.51;84.41;100949.75;6196144;23;20017;-80
2021/12/23 03:24:47;;;;;;;41.83;25.50;;;;;;;-1.50;84.19;100954.00;6196353;23;20021;-81
2021/12/23 03:27:20;;;;;;;43.28;25.23;;;;;;;-1.44;84.36;100946.00;6198251;23;20039;-81
2021/12/23 03:30:00;;;;;;;43.55;26.50;;;;;;;-1.46;84.62;100952.13;6197725;23;20066;-80
2021/12/23 03:32:36;;;;;;;47.75;26.60;;;;;;;-1.49;84.52;100940.25;6198135;23;20095;-82
2021/12/23 03:35:16;;;;;;;42.40;26.42;;;;;;;-1.52;84.88;100937.00;6198694;23;20021;-80
2021/12/23 03:41:09;;;;;;;43.80;26.35;;;;;;;-1.67;84.35;100916.28;6197388;23;20021;-81
2021/12/23 03:44:03;;;;;;;42.40;25.48;;;;;;;-1.59;85.16;100944.16;6197705;23;20085;-80
2021/12/23 03:46:37;;;;;;;42.60;25.83;;;;;;;-1.64;84.30;100917.03;6184494;23;20021;-79
2021/12/23 03:49:14;;;;;;;44.58;26.25;;;;;;;-1.57;85.11;100931.25;6196339;23;20027;-81
2021/12/23 03:51:54;;;;;;;44.90;25.60;;;;;;;-1.65;84.90;100910.22;6196838;23;20021;-81
2021/12/23 03:54:27;;;;;;;46.75;27.13;;;;;;;-1.67;85.14;100912.88;6196320;23;20072;-81
2021/12/23 03:57:02;;;;;;;47.63;26.58;;;;;;;-1.54;85.19;100929.38;6195931;23;20020;-81
2021/12/23 03:59:43;;;;;;;41.92;25.65;;;;;;;-1.55;84.77;100937.13;6195542;23;20029;-81
2021/12/23 04:02:17;;;;;;;48.30;25.58;;;;;;;-1.52;84.77;100937.00;6194146;23;20033;-81
2021/12/23 04:05:15;;;;;;;46.08;26.75;;;;;;;-1.54;85.02;100931.09;6196514;23;20048;-81
2021/12/23 04:07:54;;;;;;;45.17;26.60;;;;;;;-1.50;85.01;100930.88;6197017;23;20067;-81
2021/12/23 04:10:43;;;;;;;50.40;27.25;;;;;;;-1.63;85.64;100918.69;6196967;23;20076;-81
2021/12/23 04:13:37;;;;;;;47.00;26.73;;;;;;;-1.63;85.78;100898.16;6202530;23;20021;-80
2021/12/23 04:16:05;;;;;;;45.67;26.85;;;;;;;-1.68;85.38;100888.94;6205557;23;20025;-82
2021/12/23 04:18:38;;;;;;;45.30;27.73;;;;;;;-1.68;85.60;100863.28;6206263;23;20020;-82
2021/12/23 04:21:08;;;;;;;46.53;27.00;;;;;;;-1.61;85.99;100888.66;6204695;23;20073;-79
2021/12/23 04:23:35;;;;;;;43.97;26.92;;;;;;;-1.50;86.01;100891.56;6205327;23;20044;-81
2021/12/23 04:26:22;;;;;;;44.80;26.42;;;;;;;-1.64;85.87;100886.25;6205647;23;20021;-81
2021/12/23 04:28:55;;;;;;;47.17;27.02;;;;;;;-1.68;85.61;100896.66;6202576;23;20025;-81
2021/12/23 04:31:33;;;;;;;46.95;26.85;;;;;;;-1.65;85.98;100885.41;6199539;23;20017;-79
2021/12/23 04:34:00;;;;;;;43.75;27.23;;;;;;;-1.68;85.73;100875.28;6200456;23;20021;-82
2021/12/23 04:36:29;;;;;;;45.03;26.80;;;;;;;-1.75;86.11;100864.47;6198241;23;20499;-80
2021/12/23 04:39:13;;;;;;;46.83;28.02;;;;;;;-1.71;86.51;100860.88;6197718;23;20060;-81
2021/12/23 04:41:43;;;;;;;45.63;27.83;;;;;;;-1.69;86.29;100847.97;6196223;23;20013;-80
2021/12/23 04:44:24;;;;;;;49.63;29.13;;;;;;;-1.64;86.26;100827.22;6195390;23;20155;-80
2021/12/23 04:46:53;;;;;;;45.63;27.35;;;;;;;-1.76;86.66;100802.97;6196455;23;20013;-81
2021/12/23 04:49:25;;;;;;;44.22;26.88;;;;;;;-1.72;86.09;100795.06;6194493;23;20230;-82
2021/12/23 04:51:55;;;;;;;51.15;29.25;;;;;;;-1.62;86.04;100818.56;6193328;23;20083;-83
2021/12/23 04:54:22;;;;;;;48.97;28.27;;;;;;;-1.64;86.46;100819.53;6196603;23;20024;-82
2021/12/23 04:56:52;;;;;;;47.58;27.13;;;;;;;-1.62;86.92;100826.25;6206212;23;20032;-81
2021/12/23 04:59:22;;;;;;;48.15;27.58;;;;;;;-1.58;85.99;100824.38;6205805;23;20096;-84
2021/12/23 05:01:51;;;;;;;49.53;28.27;;;;;;;-1.61;86.14;100832.22;6197919;23;20048;-83
2021/12/23 05:04:21;;;;;;;50.30;28.25;;;;;;;-1.71;86.38;100812.13;6201419;23;20017;-81
2021/12/23 05:06:51;;;;;;;47.92;28.17;;;;;;;-1.67;86.29;100820.50;6204454;23;20024;-82
2021/12/23 05:09:18;;;;;;;44.75;26.65;;;;;;;-1.69;86.67;100823.16;6197537;23;20039;-83
2021/12/23 05:11:45;;;;;;;48.85;28.13;;;;;;;-1.73;86.61;100810.53;6202062;23;20020;-83
2021/12/23 05:14:14;;;;;;;47.83;27.58;;;;;;;-1.77;86.91;100807.28;6197339;23;20025;-83
2021/12/23 05:16:43;;;;;;;47.95;27.23;;;;;;;-1.84;87.09;100795.66;6192351;23;20028;-82
2021/12/23 05:19:09;;;;;;;47.95;27.30;;;;;;;-1.85;87.53;100801.69;6190079;23;20079;-83
2021/12/23 05:21:36;;;;;;;50.05;27.67;;;;;;;-1.88;87.70;100804.38;6190941;23;20021;-83
2021/12/23 05:24:06;;;;;;;55.90;28.88;;;;;;;-1.86;87.99;100822.28;6190652;23;20028;-82
2021/12/23 05:26:36;;;;;;;49.00;28.38;;;;;;;-1.79;87.21;100837.31;6190520;23;20075;-80
2021/12/23 05:29:03;;;;;;;47.70;27.90;;;;;;;-1.80;87.76;100832.25;6186969;23;20021;-81
2021/12/23 05:31:33;;;;;;;50.72;29.52;;;;;;;-1.94;88.17;100802.16;6188992;23;20424;-82
2021/12/23 05:34:04;;;;;;;49.42;29.52;;;;;;;-1.99;87.59;100786.13;6189612;23;20075;-82
2021/12/23 05:36:35;;;;;;;47.83;27.95;;;;;;;-2.02;88.20;100799.09;6193526;23;20574;-81
2021/12/23 05:39:05;;;;;;;49.22;29.60;;;;;;;-1.97;88.29;100830.50;6186855;23;20017;-82
2021/12/23 05:41:46;;;;;;;52.05;28.00;;;;;;;-1.96;88.25;100829.59;6191370;23;20021;-83
2021/12/23 05:44:24;;;;;;;49.70;27.88;;;;;;;-1.95;89.04;100820.16;6192132;23;20096;-81
2021/12/23 05:47:06;;;;;;;51.95;29.55;;;;;;;-1.94;88.75;100816.69;6192286;23;20033;-82
2021/12/23 05:49:49;;;;;;;51.50;29.93;;;;;;;-1.89;88.42;100800.16;6191180;23;20025;-82
2021/12/23 05:55:41;;;;;;;50.53;29.35;;;;;;;-1.98;88.32;100759.59;6193658;23;20035;-82
2021/12/23 05:58:18;;;;;;;47.80;27.92;;;;;;;-1.90;89.09;100782.31;6193610;23;20021;-82
2021/12/23 06:00:56;;;;;;;50.65;28.65;;;;;;;-1.91;88.18;100762.69;6241427;22;20046;-82
2021/12/23 06:03:39;;;;;;;51.67;27.38;;;;;;;-1.84;89.05;100752.03;6207292;22;20403;-82
2021/12/23 06:06:07;;;;;;;47.67;28.73;;;;;;;-1.78;88.86;100754.31;6279263;22;20062;-82
2021/12/23 06:08:34;;;;;;;50.25;28.52;;;;;;;-1.72;88.45;100753.19;6276512;22;20062;-81
2021/12/23 06:11:04;;;;;;;50.58;29.65;;;;;;;-1.78;88.43;100740.66;6276298;22;20026;-80
2021/12/23 06:13:33;;;;;;;50.35;30.50;;;;;;;-1.68;88.70;100742.72;6279447;22;20106;-81
2021/12/23 06:16:00;;;;;;;49.72;29.80;;;;;;;-1.58;88.43;100760.22;6271551;22;20451;-80
2021/12/23 06:18:27;;;;;;;50.33;29.65;;;;;;;-1.65;87.94;100746.84;6276253;22;20031;-81
2021/12/23 06:20:56;;;;;;;50.67;28.85;;;;;;;-1.52;87.67;100755.63;6278127;22;20016;-80
2021/12/23 06:23:35;;;;;;;48.42;29.42;;;;;;;-1.55;88.05;100736.97;6278012;22;20107;-80
2021/12/23 06:26:03;;;;;;;51.15;28.65;;;;;;;-1.48;87.96;100728.91;6278652;22;20022;-79
2021/12/23 06:28:30;;;;;;;52.13;29.20;;;;;;;-1.41;87.65;100742.22;6280699;22;20020;-80
2021/12/23 06:30:59;;;;;;;51.40;29.70;;;;;;;-1.49;87.72;100716.97;6281217;22;20095;-81
2021/12/23 06:33:35;;;;;;;50.03;29.02;;;;;;;-1.40;87.70;100725.91;6281292;22;20065;-80
2021/12/23 06:36:06;;;;;;;49.10;30.17;;;;;;;-1.33;87.76;100730.66;6280810;22;20016;-80
2021/12/23 06:38:35;;;;;;;50.78;29.88;;;;;;;-1.34;88.12;100731.56;6280852;22;20008;-80
2021/12/23 06:41:02;;;;;;;48.63;28.13;;;;;;;-1.32;87.42;100736.63;6280152;22;20107;-80
2021/12/23 06:43:29;;;;;;;48.35;28.52;;;;;;;-1.28;87.63;100740.72;6279380;22;20069;-81
2021/12/23 06:45:56;;;;;;;52.17;29.35;;;;;;;-1.28;87.49;100725.31;6279243;22;20041;-80
2021/12/23 06:48:23;;;;;;;50.33;29.40;;;;;;;-1.28;87.30;100733.00;6279951;22;20452;-80
2021/12/23 06:50:53;;;;;;;52.95;29.55;;;;;;;-1.27;87.16;100737.22;6282699;22;20016;-79
2021/12/23 06:53:20;;;;;;;51.95;28.90;;;;;;;-1.24;86.82;100749.91;6280472;22;20047;-78
2021/12/23 06:55:50;;;;;;;54.67;30.70;;;;;;;-1.26;87.45;100733.75;6282814;22;20020;-79
2021/12/23 06:58:17;;;;;;;48.22;29.00;;;;;;;-1.21;86.93;100741.22;6283438;22;20050;-78
2021/12/23 07:00:44;;;;;;;47.42;29.20;;;;;;;-1.21;87.03;100744.63;6288099;22;20020;-79
2021/12/23 07:03:11;;;;;;;47.78;29.10;;;;;;;-1.23;87.00;100727.63;6292670;22;20023;-80
2021/12/23 07:05:38;;;;;;;46.40;28.63;;;;;;;-1.24;87.15;100713.97;6297375;22;20020;-81
2021/12/23 07:08:11;;;;;;;48.55;28.80;;;;;;;-1.22;87.18;100729.28;6297246;22;20030;-81
2021/12/23 07:10:39;;;;;;;50.05;28.20;;;;;;;-1.19;87.53;100739.41;6294703;22;20098;-80
2021/12/23 07:13:07;;;;;;;50.95;28.65;;;;;;;-1.16;87.19;100741.81;6288410;22;20024;-80
2021/12/23 07:15:36;;;;;;;47.67;27.77;;;;;;;-1.20;86.78;100733.44;6293052;22;20310;-80
2021/12/23 07:18:12;;;;;;;52.22;29.88;;;;;;;-1.18;86.80;100739.34;6295812;22;20024;-79
2021/12/23 07:20:48;;;;;;;47.10;28.42;;;;;;;-1.16;86.77;100742.66;6297492;22;20191;-81
2021/12/23 07:23:17;;;;;;;52.13;30.25;;;;;;;-1.15;87.13;100743.47;6297543;22;20034;-79
2021/12/23 07:36:30;;;;;;;51.75;28.90;;;;;;;-1.09;87.38;100726.03;5934312;24;20085;-80
2021/12/23 07:39:01;;;;;;;53.28;29.77;;;;;;;-1.10;87.79;100744.09;5961192;23;20027;-80
2021/12/23 07:41:29;;;;;;;48.72;28.23;;;;;;;-1.08;87.08;100740.53;6131181;23;20021;-80
2021/12/23 07:43:58;;;;;;;48.78;28.80;;;;;;;-1.09;87.61;100745.75;6264637;22;20016;-81
2021/12/23 07:46:27;;;;;;;48.30;28.13;;;;;;;-1.06;87.00;100741.28;6287335;22;20020;-80
2021/12/23 07:48:55;;;;;;;48.53;28.85;;;;;;;-1.07;87.53;100734.47;6285947;22;20027;-81
2021/12/23 07:51:34;;;;;;;45.03;28.23;;;;;;;-1.06;87.02;100728.44;6286159;22;20030;-81
2021/12/23 07:54:01;;;;;;;45.15;27.42;;;;;;;-1.08;86.79;100722.56;6286729;22;20011;-81
2021/12/23 07:56:28;;;;;;;49.15;27.45;;;;;;;-1.07;86.98;100708.81;6285502;22;20019;-82
2021/12/23 07:58:55;;;;;;;51.53;28.30;;;;;;;-1.08;87.22;100709.72;6284498;22;20038;-82
2021/12/23 08:01:22;;;;;;;50.60;29.35;;;;;;;-1.01;87.12;100707.66;6287047;22;20024;-82
2021/12/23 08:06:42;;;;;;;50.83;28.67;;;;;;;-0.97;86.33;100706.59;6283468;22;20110;-82
2021/12/23 08:09:09;;;;;;;44.50;26.23;;;;;;;-0.85;86.66;100720.50;6287021;22;20035;-81
2021/12/23 08:11:36;;;;;;;49.05;28.30;;;;;;;-0.89;86.36;100717.25;6287257;22;20016;-81
2021/12/23 08:14:11;;;;;;;46.55;28.52;;;;;;;-0.87;86.92;100718.00;6287126;22;20027;-79
2021/12/23 08:16:44;;;;;;;51.33;29.45;;;;;;;-0.90;87.08;100714.78;6287053;22;20030;-82
2021/12/23 08:22:16;;;;;;;46.75;27.42;;;;;;;-0.89;86.85;100695.88;6286818;22;20020;-81
2021/12/23 08:24:52;;;;;;;49.83;28.45;;;;;;;-0.80;86.43;100706.50;6291140;22;20050;-81
2021/12/23 08:27:31;;;;;;;51.95;27.88;;;;;;;-0.86;86.83;100706.00;6291989;22;20035;-81
2021/12/23 08:30:07;;;;;;;73.18;43.25;;;;;;;-0.68;85.94;100713.56;6295672;22;20031;-82
2021/12/23 08:32:44;;;;;;;46.83;26.90;;;;;;;-0.81;86.55;100693.72;6300218;22;20023;-81
2021/12/23 08:35:18;;;;;;;48.85;27.92;;;;;;;-0.83;86.67;100698.94;6290928;22;20031;-81
2021/12/23 08:37:51;;;;;;;48.47;27.15;;;;;;;-0.75;86.52;100714.78;6289255;22;20341;-81
2021/12/23 08:40:29;;;;;;;49.03;27.67;;;;;;;-0.61;86.03;100716.63;6289807;22;20016;-82
2021/12/23 08:43:02;;;;;;;46.10;26.98;;;;;;;-0.64;85.74;100690.28;6290777;22;20016;-81
2021/12/23 08:45:32;;;;;;;47.17;26.80;;;;;;;-0.50;86.11;100700.63;6288676;22;20027;-81
2021/12/23 08:48:06;;;;;;;50.08;27.48;;;;;;;-0.62;85.64;100686.69;6286053;22;20042;-80
2021/12/23 08:50:36;;;;;;;46.58;27.08;;;;;;;-0.55;85.31;100685.47;6288074;22;20043;-82
2021/12/23 08:53:04;;;;;;;44.90;26.00;;;;;;;-0.43;85.31;100695.03;6286176;22;20026;-81
2021/12/23 08:55:33;;;;;;;45.47;26.38;;;;;;;-0.41;84.82;100695.78;6285970;22;20459;-81
2021/12/23 08:58:03;;;;;;;47.28;26.98;;;;;;;-0.41;84.82;100689.81;6285982;22;20041;-81
2021/12/23 09:00:32;;;;;;;48.33;27.88;;;;;;;-0.40;84.67;100678.63;6288242;22;20019;-81
2021/12/23 09:02:59;;;;;;;46.33;27.10;;;;;;;-0.32;84.52;100685.91;6286199;22;20016;-81
2021/12/23 09:05:26;;;;;;;42.63;26.90;;;;;;;-0.44;84.46;100677.97;6286620;22;20020;-81
2021/12/23 09:07:53;;;;;;;46.55;26.63;;;;;;;-0.31;84.52;100701.25;6287240;22;20050;-82
2021/12/23 09:10:23;;;;;;;46.42;27.00;;;;;;;-0.29;83.99;100696.03;6286207;22;20035;-80
2021/12/23 09:12:53;;;;;;;45.13;27.13;;;;;;;-0.30;84.07;100678.94;6285582;22;20035;-80
2021/12/23 09:15:21;;;;;;;47.40;27.42;;;;;;;-0.20;84.14;100687.81;6284006;22;20023;-81
2021/12/23 09:17:48;;;;;;;44.78;27.35;;;;;;;-0.25;84.10;100682.09;6284270;22;20027;-82
2021/12/23 09:20:18;;;;;;;46.15;26.98;;;;;;;-0.26;84.41;100672.72;6285059;22;20023;-81
2021/12/23 09:22:46;;;;;;;45.78;27.30;;;;;;;-0.12;84.34;100695.94;6285630;22;20073;-83
2021/12/23 09:25:23;;;;;;;49.83;26.95;;;;;;;-0.09;83.46;100688.88;6284862;22;20018;-82
2021/12/23 09:28:06;;;;;;;46.10;27.27;;;;;;;-0.11;83.71;100679.59;6285751;22;20079;-79
2021/12/23 09:33:23;;;;;;;43.58;25.55;;;;;;;0.04;82.79;100688.16;6288259;22;20107;-83
2021/12/23 09:35:50;;;;;;;46.22;26.02;;;;;;;0.11;82.39;100694.59;6284797;22;20026;-81
2021/12/23 09:38:30;;;;;;;44.10;26.58;;;;;;;0.05;82.31;100664.06;6284980;22;20027;-81
2021/12/23 09:41:00;;;;;;;47.45;27.63;;;;;;;0.17;82.07;100671.94;6285897;22;20075;-81
2021/12/23 09:43:30;;;;;;;46.47;27.23;;;;;;;0.26;82.12;100673.97;6296437;22;20039;-79
2021/12/23 09:45:58;;;;;;;42.65;26.40;;;;;;;0.27;81.65;100665.34;6299143;22;20041;-78
2021/12/23 09:48:32;;;;;;;41.90;25.75;;;;;;;0.37;81.17;100669.94;6294617;22;20015;-81
2021/12/23 09:51:02;;;;;;;41.78;25.70;;;;;;;0.27;81.27;100639.59;6283740;22;20015;-81
2021/12/23 09:53:32;;;;;;;49.42;26.13;;;;;;;0.48;81.04;100652.09;6284491;22;20012;-81
2021/12/23 09:56:00;;;;;;;40.47;25.52;;;;;;;0.51;81.16;100662.22;6284080;22;20018;-80
2021/12/23 09:58:37;;;;;;;43.97;25.70;;;;;;;0.42;80.93;100644.78;6281903;22;20019;-81
2021/12/23 10:01:07;;;;;;;41.08;25.63;;;;;;;0.49;80.61;100643.47;6283781;22;20035;-85
2021/12/23 10:03:47;;;;;;;44.03;27.10;;;;;;;0.65;80.55;100664.81;6281159;22;20015;-84
2021/12/23 10:06:14;;;;;;;44.78;25.17;;;;;;;0.71;79.89;100653.31;6283266;22;20382;-85
2021/12/23 10:08:46;;;;;;;45.20;25.48;;;;;;;0.73;79.77;100649.72;6282089;22;20083;-82
2021/12/23 10:11:24;;;;;;;43.08;26.52;;;;;;;0.73;79.43;100657.44;6284088;22;20024;-82
2021/12/23 10:31:26;;;;;;;44.13;25.65;;;;;;;0.98;79.69;100626.69;6279951;22;20080;-81
2021/12/23 10:37:14;;;;;;;43.10;25.55;;;;;;;1.10;78.75;100608.81;6233812;22;20055;-80
2021/12/23 10:39:43;;;;;;;44.50;26.30;;;;;;;1.07;79.06;100604.66;6282353;22;20067;-79
2021/12/23 10:42:15;;;;;;;43.88;26.63;;;;;;;1.16;78.50;100603.28;6282526;22;20336;-81
2021/12/23 10:44:49;;;;;;;44.23;26.20;;;;;;;1.24;78.42;100588.16;6282375;22;20023;-81
2021/12/23 10:47:32;;;;;;;40.10;24.20;;;;;;;1.31;78.35;100574.78;6282821;22;20304;-82
2021/12/23 10:50:14;;;;;;;42.22;25.67;;;;;;;1.22;78.51;100571.97;6281952;22;20020;-82
2021/12/23 10:52:52;;;;;;;46.97;27.65;;;;;;;1.20;78.47;100563.50;6281201;22;20065;-81
2021/12/23 10:58:15;;;;;;;43.53;26.42;;;;;;;1.23;78.61;100542.69;6281204;22;20145;-81
2021/12/23 11:00:47;;;;;;;45.65;25.25;;;;;;;1.32;78.16;100548.06;6281556;22;20530;-81
2021/12/23 11:03:19;;;;;;;44.07;26.13;;;;;;;1.29;78.15;100534.56;6280841;22;20030;-80
2021/12/23 11:06:00;;;;;;;40.42;25.45;;;;;;;1.45;77.92;100537.75;6281841;22;20028;-81
2021/12/23 11:08:43;;;;;;;43.80;25.08;;;;;;;1.49;77.59;100528.91;6281914;22;20016;-83
2021/12/23 11:11:35;;;;;;;43.67;25.70;;;;;;;1.47;77.86;100525.59;6281374;22;20019;-81
2021/12/23 11:46:57;;;;;;;43.85;24.35;;;;;;;1.86;76.29;100475.72;6107469;23;20458;-83
2021/12/23 11:49:43;;;;;;;68.38;44.28;;;;;;;1.85;76.88;100473.25;6160921;23;20454;-82
2021/12/23 11:52:37;;;;;;;45.03;25.30;;;;;;;2.08;77.12;100479.38;6160002;23;20013;-83
2021/12/23 11:55:16;;;;;;;47.78;27.48;;;;;;;1.99;77.02;100466.19;6246040;22;20075;-83
2021/12/23 12:01:30;;;;;;;42.17;26.15;;;;;;;2.21;76.20;100464.72;6062508;23;20027;-85
2021/12/23 12:07:02;;;;;;;49.50;38.63;;;;;;;2.10;76.16;100447.38;6231248;22;20021;-82
2021/12/23 12:09:32;;;;;;;40.72;25.42;;;;;;;2.08;76.25;100433.75;6292305;22;20043;-82
2021/12/23 12:12:08;;;;;;;42.72;26.80;;;;;;;2.10;76.59;100442.22;6286385;22;20046;-82
2021/12/23 12:17:42;;;;;;;41.25;24.85;;;;;;;2.09;76.55;100414.75;6213033;23;20103;-79
2021/12/23 12:20:21;;;;;;;38.60;24.75;;;;;;;2.32;76.67;100426.06;6216781;23;20128;-80
2021/12/23 12:22:53;;;;;;;40.33;24.20;;;;;;;2.31;76.72;100420.06;6218206;23;20092;-79
2021/12/23 12:25:52;;;;;;;44.17;25.13;;;;;;;2.37;76.55;100423.13;6225596;23;20039;-80
2021/12/23 12:28:27;;;;;;;42.13;25.25;;;;;;;2.36;76.26;100417.16;6247670;23;20051;-79
2021/12/23 12:30:58;;;;;;;39.72;24.65;;;;;;;2.41;76.51;100421.97;6248603;23;20088;-80
2021/12/23 12:33:43;;;;;;;42.45;24.25;;;;;;;2.39;76.32;100408.34;6249494;23;20008;-80
2021/12/23 12:36:12;;;;;;;43.55;24.92;;;;;;;2.39;76.63;100404.00;6248564;23;20051;-80
2021/12/23 12:38:41;;;;;;;40.80;25.08;;;;;;;2.46;76.11;100407.00;6247081;23;20333;-79
2021/12/23 12:41:12;;;;;;;44.22;24.80;;;;;;;2.41;76.57;100393.56;6248610;23;20048;-80
2021/12/23 12:44:08;;;;;;;42.13;24.63;;;;;;;2.47;76.80;100396.56;6247002;23;20463;-79
2021/12/23 12:47:14;;;;;;;45.30;24.67;;;;;;;2.52;76.31;100389.28;6221416;23;20016;-81
2021/12/23 12:49:44;;;;;;;43.58;25.63;;;;;;;2.57;76.40;100391.56;6248294;23;20108;-80
2021/12/23 12:52:20;;;;;;;44.40;26.13;;;;;;;2.71;76.60;100399.13;6248572;23;20022;-80
2021/12/23 12:54:54;;;;;;;44.95;23.92;;;;;;;2.82;75.97;100383.69;6248014;23;20028;-80
2021/12/23 12:57:25;;;;;;;39.55;24.30;;;;;;;2.71;76.19;100383.63;6246536;23;20048;-80
2021/12/23 12:59:53;;;;;;;42.58;25.50;;;;;;;2.71;76.19;100370.72;6245927;23;20091;-79
2021/12/23 13:02:25;;;;;;;44.25;28.25;;;;;;;2.73;76.62;100365.44;6244858;23;20071;-78
2021/12/23 13:04:57;;;;;;;39.95;24.40;;;;;;;3.04;76.56;100366.56;6246487;23;20020;-79
2021/12/23 13:07:26;;;;;;;40.83;24.42;;;;;;;2.93;76.09;100350.09;6245695;23;20039;-78
2021/12/23 13:09:58;;;;;;;38.50;23.77;;;;;;;2.99;75.35;100349.63;6246374;23;20028;-79
2021/12/23 13:12:44;;;;;;;40.47;24.60;;;;;;;3.05;75.89;100342.38;6247645;23;20020;-79
2021/12/23 13:15:17;;;;;;;45.78;25.23;;;;;;;3.04;75.81;100341.53;6250046;22;20074;-78